Página principal
METAR-TAF:

METAR-TAF

Aeroportos :

Grand Prairie Municipal Airport

Grand Prairie, Texas, Estados Unidos

latitude: 32-41-55N, longitude: 097-02-48W, altura: 180 m

Observação actual do tempo

O boletim foi feito há 18 minutos, às 13:15 UTC
Vento calmo
Temperatura 4°C
Humidade 100%
Pressão 1020 hPa
Visibilidade: 16.1 km
Céu limpo

METAR: KGPM 181315Z AUTO 00000KT 10SM CLR 04/04 A3013 RMK AO2 T00350035

Hora: 07:33 (13:33 UTC)


TAF: em falta

Observações e previsões do tempo de mais de 4000 aeroportos (mensagens METAR e TAF).

As estações disponíveis são os pontos amarelos e vermelhos sobre o mapa.

Mova o rato sobre o mapa para ver o nome da estação.

Depois clique no ponto para visualizar as observações e previsões meteorológicas.

Para alterar o mapa : clique nos botões verdes com uma cruz preta para aumentar o zoom; no botão verde com uma pitada de zoom; ou nas setas verdes para mapas adjacentes.


METAR-TAF: